sensor_id;sensor_type;location;lat;lon;timestamp;P1;durP1;ratioP1;P2;durP2;ratioP2
7487;SDS011;3785;52.260;4.728;2024-02-23T00:02:09;0.00;;;0.00;;
7487;SDS011;3785;52.260;4.728;2024-02-23T00:05:30;0.00;;;0.00;;
7487;SDS011;3785;52.260;4.728;2024-02-23T00:08:51;0.00;;;0.00;;
7487;SDS011;3785;52.260;4.728;2024-02-23T00:12:13;0.00;;;0.00;;
7487;SDS011;3785;52.260;4.728;2024-02-23T00:15:34;0.00;;;0.00;;
7487;SDS011;3785;52.260;4.728;2024-02-23T00:18:55;0.00;;;0.00;;
7487;SDS011;3785;52.260;4.728;2024-02-23T00:22:15;0.00;;;0.00;;
7487;SDS011;3785;52.260;4.728;2024-02-23T00:25:36;0.00;;;0.00;;
7487;SDS011;3785;52.260;4.728;2024-02-23T00:28:56;0.00;;;0.00;;
7487;SDS011;3785;52.260;4.728;2024-02-23T00:32:17;5.22;;;1.25;;
7487;SDS011;3785;52.260;4.728;2024-02-23T00:35:38;1.80;;;0.98;;
7487;SDS011;3785;52.260;4.728;2024-02-23T00:38:58;5.38;;;0.95;;
7487;SDS011;3785;52.260;4.728;2024-02-23T00:42:19;2.75;;;0.57;;
7487;SDS011;3785;52.260;4.728;2024-02-23T00:45:40;4.82;;;0.93;;
7487;SDS011;3785;52.260;4.728;2024-02-23T00:49:01;1.55;;;0.60;;
7487;SDS011;3785;52.260;4.728;2024-02-23T00:52:22;6.68;;;0.85;;
7487;SDS011;3785;52.260;4.728;2024-02-23T00:55:43;1.92;;;0.60;;
7487;SDS011;3785;52.260;4.728;2024-02-23T00:59:03;1.15;;;0.60;;
7487;SDS011;3785;52.260;4.728;2024-02-23T01:02:24;7.00;;;1.05;;
7487;SDS011;3785;52.260;4.728;2024-02-23T01:05:44;5.72;;;0.70;;
7487;SDS011;3785;52.260;4.728;2024-02-23T01:09:05;6.60;;;1.30;;
7487;SDS011;3785;52.260;4.728;2024-02-23T01:12:26;9.02;;;1.75;;
7487;SDS011;3785;52.260;4.728;2024-02-23T01:15:46;2.65;;;0.70;;
7487;SDS011;3785;52.260;4.728;2024-02-23T01:19:07;4.32;;;1.08;;
7487;SDS011;3785;52.260;4.728;2024-02-23T01:22:29;3.38;;;1.42;;
7487;SDS011;3785;52.260;4.728;2024-02-23T01:25:49;2.53;;;0.80;;
7487;SDS011;3785;52.260;4.728;2024-02-23T01:29:10;1.90;;;0.65;;
7487;SDS011;3785;52.260;4.728;2024-02-23T01:32:30;2.88;;;0.70;;
7487;SDS011;3785;52.260;4.728;2024-02-23T01:35:51;7.95;;;1.23;;
7487;SDS011;3785;52.260;4.728;2024-02-23T01:39:12;5.18;;;0.68;;
7487;SDS011;3785;52.260;4.728;2024-02-23T01:42:32;2.80;;;0.60;;
7487;SDS011;3785;52.260;4.728;2024-02-23T01:45:53;2.20;;;0.90;;
7487;SDS011;3785;52.260;4.728;2024-02-23T01:49:14;2.90;;;0.90;;
7487;SDS011;3785;52.260;4.728;2024-02-23T01:52:34;2.42;;;0.95;;
7487;SDS011;3785;52.260;4.728;2024-02-23T01:55:55;6.38;;;1.50;;
7487;SDS011;3785;52.260;4.728;2024-02-23T01:59:17;6.63;;;1.00;;
7487;SDS011;3785;52.260;4.728;2024-02-23T02:02:39;3.83;;;0.88;;
7487;SDS011;3785;52.260;4.728;2024-02-23T02:06:00;5.68;;;0.93;;
7487;SDS011;3785;52.260;4.728;2024-02-23T02:09:20;3.60;;;1.02;;
7487;SDS011;3785;52.260;4.728;2024-02-23T02:12:41;2.78;;;0.70;;
7487;SDS011;3785;52.260;4.728;2024-02-23T02:16:02;2.05;;;0.95;;
7487;SDS011;3785;52.260;4.728;2024-02-23T02:19:22;4.50;;;1.27;;
7487;SDS011;3785;52.260;4.728;2024-02-23T02:22:43;5.65;;;1.02;;
7487;SDS011;3785;52.260;4.728;2024-02-23T02:26:03;3.45;;;1.05;;
7487;SDS011;3785;52.260;4.728;2024-02-23T02:29:24;3.13;;;0.98;;
7487;SDS011;3785;52.260;4.728;2024-02-23T02:32:45;4.93;;;0.93;;
7487;SDS011;3785;52.260;4.728;2024-02-23T02:36:06;3.25;;;0.93;;
7487;SDS011;3785;52.260;4.728;2024-02-23T02:39:27;6.28;;;1.23;;
7487;SDS011;3785;52.260;4.728;2024-02-23T02:42:48;3.90;;;1.00;;
7487;SDS011;3785;52.260;4.728;2024-02-23T02:46:08;2.20;;;0.85;;
7487;SDS011;3785;52.260;4.728;2024-02-23T02:49:29;6.32;;;1.17;;
7487;SDS011;3785;52.260;4.728;2024-02-23T02:52:49;5.18;;;0.82;;
7487;SDS011;3785;52.260;4.728;2024-02-23T02:56:10;4.97;;;0.77;;
7487;SDS011;3785;52.260;4.728;2024-02-23T02:59:33;5.63;;;0.65;;
7487;SDS011;3785;52.260;4.728;2024-02-23T03:02:55;1.98;;;0.63;;
7487;SDS011;3785;52.260;4.728;2024-02-23T03:06:16;1.85;;;0.65;;
7487;SDS011;3785;52.260;4.728;2024-02-23T03:09:36;6.05;;;1.10;;
7487;SDS011;3785;52.260;4.728;2024-02-23T03:12:57;2.28;;;0.43;;
7487;SDS011;3785;52.260;4.728;2024-02-23T03:16:17;3.25;;;0.63;;
7487;SDS011;3785;52.260;4.728;2024-02-23T03:19:38;4.78;;;0.75;;
7487;SDS011;3785;52.260;4.728;2024-02-23T03:22:59;4.55;;;0.73;;
7487;SDS011;3785;52.260;4.728;2024-02-23T03:26:21;1.98;;;0.50;;
7487;SDS011;3785;52.260;4.728;2024-02-23T03:29:41;1.80;;;0.60;;
7487;SDS011;3785;52.260;4.728;2024-02-23T03:33:02;2.15;;;0.70;;
7487;SDS011;3785;52.260;4.728;2024-02-23T03:36:23;2.15;;;0.47;;
7487;SDS011;3785;52.260;4.728;2024-02-23T03:39:43;1.48;;;0.63;;
7487;SDS011;3785;52.260;4.728;2024-02-23T03:43:04;6.85;;;1.05;;
7487;SDS011;3785;52.260;4.728;2024-02-23T03:46:25;2.53;;;0.93;;
7487;SDS011;3785;52.260;4.728;2024-02-23T03:49:46;2.08;;;0.80;;
7487;SDS011;3785;52.260;4.728;2024-02-23T03:53:07;2.90;;;0.70;;
7487;SDS011;3785;52.260;4.728;2024-02-23T03:56:27;4.57;;;0.90;;
7487;SDS011;3785;52.260;4.728;2024-02-23T03:59:51;7.95;;;2.08;;
7487;SDS011;3785;52.260;4.728;2024-02-23T04:03:13;3.75;;;0.65;;
7487;SDS011;3785;52.260;4.728;2024-02-23T04:06:34;2.10;;;0.80;;
7487;SDS011;3785;52.260;4.728;2024-02-23T04:09:54;2.03;;;0.73;;
7487;SDS011;3785;52.260;4.728;2024-02-23T04:13:15;4.25;;;0.80;;
7487;SDS011;3785;52.260;4.728;2024-02-23T04:16:37;3.22;;;0.70;;
7487;SDS011;3785;52.260;4.728;2024-02-23T04:19:59;3.03;;;1.30;;
7487;SDS011;3785;52.260;4.728;2024-02-23T04:23:20;3.60;;;1.02;;
7487;SDS011;3785;52.260;4.728;2024-02-23T04:26:41;5.13;;;1.02;;
7487;SDS011;3785;52.260;4.728;2024-02-23T04:30:02;1.00;;;0.55;;
7487;SDS011;3785;52.260;4.728;2024-02-23T04:33:23;4.55;;;1.02;;
7487;SDS011;3785;52.260;4.728;2024-02-23T04:36:44;1.42;;;0.75;;
7487;SDS011;3785;52.260;4.728;2024-02-23T04:40:05;1.45;;;0.80;;
7487;SDS011;3785;52.260;4.728;2024-02-23T04:43:26;3.95;;;0.95;;
7487;SDS011;3785;52.260;4.728;2024-02-23T04:46:46;4.95;;;0.73;;
7487;SDS011;3785;52.260;4.728;2024-02-23T04:50:07;3.28;;;0.82;;
7487;SDS011;3785;52.260;4.728;2024-02-23T04:53:28;1.67;;;0.80;;
7487;SDS011;3785;52.260;4.728;2024-02-23T04:56:49;2.33;;;1.00;;
7487;SDS011;3785;52.260;4.728;2024-02-23T05:00:10;3.72;;;0.90;;
7487;SDS011;3785;52.260;4.728;2024-02-23T05:03:31;2.70;;;1.20;;
7487;SDS011;3785;52.260;4.728;2024-02-23T05:06:52;6.28;;;1.48;;
7487;SDS011;3785;52.260;4.728;2024-02-23T05:10:13;1.75;;;0.88;;
7487;SDS011;3785;52.260;4.728;2024-02-23T05:13:33;2.28;;;0.95;;
7487;SDS011;3785;52.260;4.728;2024-02-23T05:16:54;2.25;;;0.55;;
7487;SDS011;3785;52.260;4.728;2024-02-23T05:20:15;3.78;;;0.85;;
7487;SDS011;3785;52.260;4.728;2024-02-23T05:23:35;2.67;;;0.80;;
7487;SDS011;3785;52.260;4.728;2024-02-23T05:26:56;5.57;;;0.68;;
7487;SDS011;3785;52.260;4.728;2024-02-23T05:30:18;2.25;;;0.80;;
7487;SDS011;3785;52.260;4.728;2024-02-23T05:33:38;2.85;;;0.60;;
7487;SDS011;3785;52.260;4.728;2024-02-23T05:36:59;2.28;;;0.75;;
7487;SDS011;3785;52.260;4.728;2024-02-23T05:40:19;1.73;;;0.43;;
7487;SDS011;3785;52.260;4.728;2024-02-23T05:43:40;4.60;;;0.73;;
7487;SDS011;3785;52.260;4.728;2024-02-23T05:47:01;0.70;;;0.30;;
7487;SDS011;3785;52.260;4.728;2024-02-23T05:50:21;0.38;;;0.28;;
7487;SDS011;3785;52.260;4.728;2024-02-23T05:53:42;1.23;;;0.43;;
7487;SDS011;3785;52.260;4.728;2024-02-23T05:57:03;0.80;;;0.40;;
7487;SDS011;3785;52.260;4.728;2024-02-23T06:00:24;2.30;;;0.60;;
7487;SDS011;3785;52.260;4.728;2024-02-23T06:03:45;2.03;;;0.85;;
7487;SDS011;3785;52.260;4.728;2024-02-23T06:07:06;2.88;;;1.15;;
7487;SDS011;3785;52.260;4.728;2024-02-23T06:10:26;2.70;;;1.17;;
7487;SDS011;3785;52.260;4.728;2024-02-23T06:13:47;2.15;;;1.15;;
7487;SDS011;3785;52.260;4.728;2024-02-23T06:17:08;3.42;;;1.55;;
7487;SDS011;3785;52.260;4.728;2024-02-23T06:20:28;2.03;;;1.20;;
7487;SDS011;3785;52.260;4.728;2024-02-23T06:23:49;2.42;;;1.48;;
7487;SDS011;3785;52.260;4.728;2024-02-23T06:27:10;2.25;;;1.15;;
7487;SDS011;3785;52.260;4.728;2024-02-23T06:30:31;2.08;;;1.23;;
7487;SDS011;3785;52.260;4.728;2024-02-23T06:33:51;5.80;;;1.67;;
7487;SDS011;3785;52.260;4.728;2024-02-23T06:37:12;2.38;;;1.50;;
7487;SDS011;3785;52.260;4.728;2024-02-23T06:40:33;3.83;;;1.60;;
7487;SDS011;3785;52.260;4.728;2024-02-23T06:43:54;3.95;;;2.10;;
7487;SDS011;3785;52.260;4.728;2024-02-23T06:47:15;2.42;;;1.70;;
7487;SDS011;3785;52.260;4.728;2024-02-23T06:50:36;4.82;;;2.00;;
7487;SDS011;3785;52.260;4.728;2024-02-23T06:53:57;2.65;;;1.70;;
7487;SDS011;3785;52.260;4.728;2024-02-23T06:57:18;3.33;;;2.05;;
7487;SDS011;3785;52.260;4.728;2024-02-23T07:00:38;3.03;;;1.50;;
7487;SDS011;3785;52.260;4.728;2024-02-23T07:03:59;3.78;;;2.25;;
7487;SDS011;3785;52.260;4.728;2024-02-23T07:07:19;3.10;;;1.70;;
7487;SDS011;3785;52.260;4.728;2024-02-23T07:10:40;4.35;;;1.92;;
7487;SDS011;3785;52.260;4.728;2024-02-23T07:14:01;10.15;;;2.67;;
7487;SDS011;3785;52.260;4.728;2024-02-23T07:17:21;4.57;;;2.35;;
7487;SDS011;3785;52.260;4.728;2024-02-23T07:20:42;3.78;;;2.25;;
7487;SDS011;3785;52.260;4.728;2024-02-23T07:24:02;4.43;;;2.65;;
7487;SDS011;3785;52.260;4.728;2024-02-23T07:27:23;3.17;;;2.03;;
7487;SDS011;3785;52.260;4.728;2024-02-23T07:30:44;5.30;;;2.20;;
7487;SDS011;3785;52.260;4.728;2024-02-23T07:34:04;5.40;;;2.10;;
7487;SDS011;3785;52.260;4.728;2024-02-23T07:37:28;5.32;;;2.60;;
7487;SDS011;3785;52.260;4.728;2024-02-23T07:40:49;5.38;;;2.13;;
7487;SDS011;3785;52.260;4.728;2024-02-23T07:44:09;4.60;;;2.33;;
7487;SDS011;3785;52.260;4.728;2024-02-23T07:47:30;3.08;;;1.67;;
7487;SDS011;3785;52.260;4.728;2024-02-23T07:50:51;4.65;;;1.88;;
7487;SDS011;3785;52.260;4.728;2024-02-23T07:54:12;5.63;;;1.77;;
7487;SDS011;3785;52.260;4.728;2024-02-23T07:57:32;4.05;;;1.80;;
7487;SDS011;3785;52.260;4.728;2024-02-23T08:00:54;4.75;;;1.55;;
7487;SDS011;3785;52.260;4.728;2024-02-23T08:04:15;4.40;;;1.70;;
7487;SDS011;3785;52.260;4.728;2024-02-23T08:07:36;5.97;;;1.70;;
7487;SDS011;3785;52.260;4.728;2024-02-23T08:10:56;3.90;;;1.60;;
7487;SDS011;3785;52.260;4.728;2024-02-23T08:14:17;4.32;;;1.58;;
7487;SDS011;3785;52.260;4.728;2024-02-23T08:17:38;2.70;;;0.90;;
7487;SDS011;3785;52.260;4.728;2024-02-23T08:20:58;3.65;;;1.50;;
7487;SDS011;3785;52.260;4.728;2024-02-23T08:24:22;4.15;;;1.27;;
7487;SDS011;3785;52.260;4.728;2024-02-23T08:27:42;1.73;;;1.10;;
7487;SDS011;3785;52.260;4.728;2024-02-23T08:31:03;4.57;;;1.15;;
7487;SDS011;3785;52.260;4.728;2024-02-23T08:34:24;2.28;;;1.00;;
7487;SDS011;3785;52.260;4.728;2024-02-23T08:37:45;5.55;;;1.38;;
7487;SDS011;3785;52.260;4.728;2024-02-23T08:41:06;1.35;;;0.90;;
7487;SDS011;3785;52.260;4.728;2024-02-23T08:44:26;2.20;;;1.10;;
7487;SDS011;3785;52.260;4.728;2024-02-23T08:47:47;3.08;;;0.82;;
7487;SDS011;3785;52.260;4.728;2024-02-23T08:51:07;4.38;;;1.42;;
7487;SDS011;3785;52.260;4.728;2024-02-23T08:54:28;2.88;;;1.05;;
7487;SDS011;3785;52.260;4.728;2024-02-23T08:57:49;1.13;;;0.68;;
7487;SDS011;3785;52.260;4.728;2024-02-23T09:01:10;2.75;;;1.60;;
7487;SDS011;3785;52.260;4.728;2024-02-23T09:04:30;2.95;;;1.20;;
7487;SDS011;3785;52.260;4.728;2024-02-23T09:07:51;2.88;;;0.82;;
7487;SDS011;3785;52.260;4.728;2024-02-23T09:11:13;2.83;;;1.48;;
7487;SDS011;3785;52.260;4.728;2024-02-23T09:14:35;1.65;;;0.93;;
7487;SDS011;3785;52.260;4.728;2024-02-23T09:17:57;1.02;;;0.85;;
7487;SDS011;3785;52.260;4.728;2024-02-23T09:21:18;4.03;;;1.27;;
7487;SDS011;3785;52.260;4.728;2024-02-23T09:24:39;3.05;;;1.25;;
7487;SDS011;3785;52.260;4.728;2024-02-23T09:28:00;3.47;;;1.58;;
7487;SDS011;3785;52.260;4.728;2024-02-23T09:31:21;4.35;;;1.42;;
7487;SDS011;3785;52.260;4.728;2024-02-23T09:34:41;1.77;;;1.10;;
7487;SDS011;3785;52.260;4.728;2024-02-23T09:38:02;2.55;;;0.95;;
7487;SDS011;3785;52.260;4.728;2024-02-23T09:41:23;2.95;;;1.10;;
7487;SDS011;3785;52.260;4.728;2024-02-23T09:44:44;2.80;;;1.15;;
7487;SDS011;3785;52.260;4.728;2024-02-23T09:48:06;3.42;;;1.23;;
7487;SDS011;3785;52.260;4.728;2024-02-23T09:51:27;4.25;;;1.13;;
7487;SDS011;3785;52.260;4.728;2024-02-23T09:54:48;1.80;;;1.13;;
7487;SDS011;3785;52.260;4.728;2024-02-23T09:58:09;2.20;;;1.02;;
7487;SDS011;3785;52.260;4.728;2024-02-23T10:01:33;2.60;;;1.38;;
7487;SDS011;3785;52.260;4.728;2024-02-23T10:04:54;2.38;;;1.30;;
7487;SDS011;3785;52.260;4.728;2024-02-23T10:08:16;1.45;;;0.90;;
7487;SDS011;3785;52.260;4.728;2024-02-23T10:11:36;3.83;;;1.15;;
7487;SDS011;3785;52.260;4.728;2024-02-23T10:14:57;2.88;;;1.10;;
7487;SDS011;3785;52.260;4.728;2024-02-23T10:18:18;4.50;;;1.48;;
7487;SDS011;3785;52.260;4.728;2024-02-23T10:21:39;4.53;;;1.25;;
7487;SDS011;3785;52.260;4.728;2024-02-23T10:24:59;3.67;;;1.25;;
7487;SDS011;3785;52.260;4.728;2024-02-23T10:28:20;3.17;;;1.10;;
7487;SDS011;3785;52.260;4.728;2024-02-23T10:31:42;4.80;;;1.25;;
7487;SDS011;3785;52.260;4.728;2024-02-23T10:35:07;3.53;;;1.02;;
7487;SDS011;3785;52.260;4.728;2024-02-23T10:38:37;1.60;;;0.90;;
7487;SDS011;3785;52.260;4.728;2024-02-23T10:42:02;2.78;;;0.88;;
7487;SDS011;3785;52.260;4.728;2024-02-23T10:45:23;2.05;;;1.02;;
7487;SDS011;3785;52.260;4.728;2024-02-23T10:48:45;3.22;;;0.70;;
7487;SDS011;3785;52.260;4.728;2024-02-23T10:52:05;3.58;;;0.80;;
7487;SDS011;3785;52.260;4.728;2024-02-23T10:55:27;2.20;;;1.00;;
7487;SDS011;3785;52.260;4.728;2024-02-23T10:58:49;1.30;;;0.73;;
7487;SDS011;3785;52.260;4.728;2024-02-23T11:02:10;2.13;;;0.95;;
7487;SDS011;3785;52.260;4.728;2024-02-23T11:05:31;2.03;;;0.70;;
7487;SDS011;3785;52.260;4.728;2024-02-23T11:08:52;2.63;;;1.05;;
7487;SDS011;3785;52.260;4.728;2024-02-23T11:12:21;2.08;;;1.00;;
7487;SDS011;3785;52.260;4.728;2024-02-23T11:15:44;2.47;;;1.00;;
7487;SDS011;3785;52.260;4.728;2024-02-23T11:19:05;2.30;;;1.02;;
7487;SDS011;3785;52.260;4.728;2024-02-23T11:22:32;3.63;;;1.30;;
7487;SDS011;3785;52.260;4.728;2024-02-23T11:29:28;2.42;;;0.93;;
7487;SDS011;3785;52.260;4.728;2024-02-23T11:32:49;2.85;;;0.70;;
7487;SDS011;3785;52.260;4.728;2024-02-23T11:36:21;3.60;;;0.90;;
7487;SDS011;3785;52.260;4.728;2024-02-23T11:39:49;1.80;;;0.77;;
7487;SDS011;3785;52.260;4.728;2024-02-23T11:43:10;2.00;;;0.90;;
7487;SDS011;3785;52.260;4.728;2024-02-23T11:46:30;1.98;;;0.68;;
7487;SDS011;3785;52.260;4.728;2024-02-23T11:49:51;1.95;;;1.00;;
7487;SDS011;3785;52.260;4.728;2024-02-23T11:53:12;2.03;;;1.13;;
7487;SDS011;3785;52.260;4.728;2024-02-23T11:56:32;4.25;;;1.27;;
7487;SDS011;3785;52.260;4.728;2024-02-23T11:59:54;1.20;;;0.90;;
7487;SDS011;3785;52.260;4.728;2024-02-23T12:03:14;2.55;;;0.88;;
7487;SDS011;3785;52.260;4.728;2024-02-23T12:06:36;5.15;;;1.33;;
7487;SDS011;3785;52.260;4.728;2024-02-23T12:09:56;2.40;;;0.80;;
7487;SDS011;3785;52.260;4.728;2024-02-23T12:13:17;2.15;;;0.90;;
7487;SDS011;3785;52.260;4.728;2024-02-23T12:16:39;2.45;;;0.70;;
7487;SDS011;3785;52.260;4.728;2024-02-23T12:20:01;2.20;;;0.70;;
7487;SDS011;3785;52.260;4.728;2024-02-23T12:23:22;3.03;;;0.60;;
7487;SDS011;3785;52.260;4.728;2024-02-23T12:26:43;2.70;;;0.70;;
7487;SDS011;3785;52.260;4.728;2024-02-23T12:30:04;2.88;;;0.80;;
7487;SDS011;3785;52.260;4.728;2024-02-23T12:33:26;1.13;;;0.68;;
7487;SDS011;3785;52.260;4.728;2024-02-23T12:36:48;2.63;;;0.80;;
7487;SDS011;3785;52.260;4.728;2024-02-23T12:40:10;2.00;;;0.60;;
7487;SDS011;3785;52.260;4.728;2024-02-23T12:43:31;3.63;;;1.08;;
7487;SDS011;3785;52.260;4.728;2024-02-23T12:46:51;2.50;;;0.80;;
7487;SDS011;3785;52.260;4.728;2024-02-23T12:50:12;2.28;;;0.85;;
7487;SDS011;3785;52.260;4.728;2024-02-23T12:53:36;1.90;;;0.82;;
7487;SDS011;3785;52.260;4.728;2024-02-23T12:56:58;2.45;;;0.80;;
7487;SDS011;3785;52.260;4.728;2024-02-23T13:00:18;2.53;;;0.75;;
7487;SDS011;3785;52.260;4.728;2024-02-23T13:03:39;0.88;;;0.38;;
7487;SDS011;3785;52.260;4.728;2024-02-23T13:07:01;3.25;;;0.68;;
7487;SDS011;3785;52.260;4.728;2024-02-23T13:10:22;1.58;;;0.75;;
7487;SDS011;3785;52.260;4.728;2024-02-23T13:13:43;1.98;;;0.60;;
7487;SDS011;3785;52.260;4.728;2024-02-23T13:17:03;0.90;;;0.47;;
7487;SDS011;3785;52.260;4.728;2024-02-23T13:20:24;2.47;;;0.88;;
7487;SDS011;3785;52.260;4.728;2024-02-23T13:23:45;5.90;;;0.82;;
7487;SDS011;3785;52.260;4.728;2024-02-23T13:27:06;1.00;;;0.35;;
7487;SDS011;3785;52.260;4.728;2024-02-23T13:30:26;1.85;;;0.50;;
7487;SDS011;3785;52.260;4.728;2024-02-23T13:33:47;1.00;;;0.52;;
7487;SDS011;3785;52.260;4.728;2024-02-23T13:37:07;2.78;;;0.60;;
7487;SDS011;3785;52.260;4.728;2024-02-23T13:40:29;1.92;;;0.65;;
7487;SDS011;3785;52.260;4.728;2024-02-23T13:43:50;3.63;;;0.60;;
7487;SDS011;3785;52.260;4.728;2024-02-23T13:47:11;2.42;;;0.50;;
7487;SDS011;3785;52.260;4.728;2024-02-23T13:50:32;3.53;;;0.50;;
7487;SDS011;3785;52.260;4.728;2024-02-23T13:53:52;0.60;;;0.30;;
7487;SDS011;3785;52.260;4.728;2024-02-23T13:57:13;0.30;;;0.30;;
7487;SDS011;3785;52.260;4.728;2024-02-23T14:00:34;1.35;;;0.40;;
7487;SDS011;3785;52.260;4.728;2024-02-23T14:03:54;1.35;;;0.40;;
7487;SDS011;3785;52.260;4.728;2024-02-23T14:07:15;1.90;;;0.40;;
7487;SDS011;3785;52.260;4.728;2024-02-23T14:10:36;0.60;;;0.30;;
7487;SDS011;3785;52.260;4.728;2024-02-23T14:13:56;1.17;;;0.50;;
7487;SDS011;3785;52.260;4.728;2024-02-23T14:17:18;2.03;;;0.60;;
7487;SDS011;3785;52.260;4.728;2024-02-23T14:20:38;1.70;;;0.32;;
7487;SDS011;3785;52.260;4.728;2024-02-23T14:24:00;2.65;;;0.38;;
7487;SDS011;3785;52.260;4.728;2024-02-23T14:27:21;2.75;;;0.50;;
7487;SDS011;3785;52.260;4.728;2024-02-23T14:30:42;0.55;;;0.30;;
7487;SDS011;3785;52.260;4.728;2024-02-23T14:34:03;0.80;;;0.40;;
7487;SDS011;3785;52.260;4.728;2024-02-23T14:37:23;0.60;;;0.30;;
7487;SDS011;3785;52.260;4.728;2024-02-23T14:40:44;2.67;;;0.50;;
7487;SDS011;3785;52.260;4.728;2024-02-23T14:44:05;0.22;;;0.20;;
7487;SDS011;3785;52.260;4.728;2024-02-23T14:47:25;0.40;;;0.25;;
7487;SDS011;3785;52.260;4.728;2024-02-23T14:50:46;1.30;;;0.40;;
7487;SDS011;3785;52.260;4.728;2024-02-23T14:54:06;0.55;;;0.30;;
7487;SDS011;3785;52.260;4.728;2024-02-23T14:57:27;0.40;;;0.20;;
7487;SDS011;3785;52.260;4.728;2024-02-23T15:00:48;1.75;;;0.60;;
7487;SDS011;3785;52.260;4.728;2024-02-23T15:04:08;1.35;;;0.80;;
7487;SDS011;3785;52.260;4.728;2024-02-23T15:07:29;0.68;;;0.30;;
7487;SDS011;3785;52.260;4.728;2024-02-23T15:10:50;1.55;;;0.60;;
7487;SDS011;3785;52.260;4.728;2024-02-23T15:14:13;0.50;;;0.30;;
7487;SDS011;3785;52.260;4.728;2024-02-23T15:17:35;2.20;;;0.50;;
7487;SDS011;3785;52.260;4.728;2024-02-23T15:20:55;1.92;;;0.63;;
7487;SDS011;3785;52.260;4.728;2024-02-23T15:24:16;0.88;;;0.40;;
7487;SDS011;3785;52.260;4.728;2024-02-23T15:27:38;1.10;;;0.40;;
7487;SDS011;3785;52.260;4.728;2024-02-23T15:30:58;1.15;;;0.60;;
7487;SDS011;3785;52.260;4.728;2024-02-23T15:34:19;1.27;;;0.70;;
7487;SDS011;3785;52.260;4.728;2024-02-23T15:37:40;0.50;;;0.30;;
7487;SDS011;3785;52.260;4.728;2024-02-23T15:41:00;1.05;;;0.50;;
7487;SDS011;3785;52.260;4.728;2024-02-23T15:44:21;0.77;;;0.60;;
7487;SDS011;3785;52.260;4.728;2024-02-23T15:47:42;0.98;;;0.60;;
7487;SDS011;3785;52.260;4.728;2024-02-23T15:51:03;1.85;;;0.52;;
7487;SDS011;3785;52.260;4.728;2024-02-23T15:54:24;0.50;;;0.40;;
7487;SDS011;3785;52.260;4.728;2024-02-23T15:57:47;1.27;;;0.40;;
7487;SDS011;3785;52.260;4.728;2024-02-23T16:01:07;0.73;;;0.60;;
7487;SDS011;3785;52.260;4.728;2024-02-23T16:04:28;0.88;;;0.50;;
7487;SDS011;3785;52.260;4.728;2024-02-23T16:07:49;1.10;;;0.63;;
7487;SDS011;3785;52.260;4.728;2024-02-23T16:11:09;3.13;;;0.40;;
7487;SDS011;3785;52.260;4.728;2024-02-23T16:14:30;2.20;;;0.50;;
7487;SDS011;3785;52.260;4.728;2024-02-23T16:17:51;1.45;;;0.63;;
7487;SDS011;3785;52.260;4.728;2024-02-23T16:21:12;0.70;;;0.60;;
7487;SDS011;3785;52.260;4.728;2024-02-23T16:24:36;0.98;;;0.50;;
7487;SDS011;3785;52.260;4.728;2024-02-23T16:27:57;2.38;;;0.60;;
7487;SDS011;3785;52.260;4.728;2024-02-23T16:31:17;2.70;;;0.57;;
7487;SDS011;3785;52.260;4.728;2024-02-23T16:34:38;0.85;;;0.52;;
7487;SDS011;3785;52.260;4.728;2024-02-23T16:37:59;1.08;;;0.70;;
7487;SDS011;3785;52.260;4.728;2024-02-23T16:41:20;2.22;;;0.68;;
7487;SDS011;3785;52.260;4.728;2024-02-23T16:44:40;0.65;;;0.50;;
7487;SDS011;3785;52.260;4.728;2024-02-23T16:48:01;1.65;;;0.90;;
7487;SDS011;3785;52.260;4.728;2024-02-23T16:51:27;1.05;;;0.70;;
7487;SDS011;3785;52.260;4.728;2024-02-23T16:54:48;1.15;;;0.68;;
7487;SDS011;3785;52.260;4.728;2024-02-23T16:58:09;2.50;;;1.10;;
7487;SDS011;3785;52.260;4.728;2024-02-23T17:01:30;2.47;;;0.80;;
7487;SDS011;3785;52.260;4.728;2024-02-23T17:04:50;1.98;;;0.88;;
7487;SDS011;3785;52.260;4.728;2024-02-23T17:08:11;1.15;;;0.43;;
7487;SDS011;3785;52.260;4.728;2024-02-23T17:11:32;0.80;;;0.45;;
7487;SDS011;3785;52.260;4.728;2024-02-23T17:14:52;1.00;;;0.50;;
7487;SDS011;3785;52.260;4.728;2024-02-23T17:18:13;2.78;;;0.40;;
7487;SDS011;3785;52.260;4.728;2024-02-23T17:21:33;1.58;;;0.40;;
7487;SDS011;3785;52.260;4.728;2024-02-23T17:24:54;0.90;;;0.50;;
7487;SDS011;3785;52.260;4.728;2024-02-23T17:28:14;1.60;;;0.52;;
7487;SDS011;3785;52.260;4.728;2024-02-23T17:31:35;1.02;;;0.45;;
7487;SDS011;3785;52.260;4.728;2024-02-23T17:34:56;0.50;;;0.45;;
7487;SDS011;3785;52.260;4.728;2024-02-23T17:38:17;1.13;;;0.60;;
7487;SDS011;3785;52.260;4.728;2024-02-23T17:41:40;0.85;;;0.50;;
7487;SDS011;3785;52.260;4.728;2024-02-23T17:45:02;0.95;;;0.55;;
7487;SDS011;3785;52.260;4.728;2024-02-23T17:48:23;1.02;;;0.50;;
7487;SDS011;3785;52.260;4.728;2024-02-23T17:51:43;0.57;;;0.40;;
7487;SDS011;3785;52.260;4.728;2024-02-23T17:55:04;0.60;;;0.20;;
7487;SDS011;3785;52.260;4.728;2024-02-23T17:58:25;0.60;;;0.30;;
7487;SDS011;3785;52.260;4.728;2024-02-23T18:01:45;2.05;;;0.60;;
7487;SDS011;3785;52.260;4.728;2024-02-23T18:05:06;0.73;;;0.57;;
7487;SDS011;3785;52.260;4.728;2024-02-23T18:08:27;0.82;;;0.40;;
7487;SDS011;3785;52.260;4.728;2024-02-23T18:11:48;5.43;;;0.60;;
7487;SDS011;3785;52.260;4.728;2024-02-23T18:15:08;2.03;;;0.60;;
7487;SDS011;3785;52.260;4.728;2024-02-23T18:18:29;1.75;;;0.80;;
7487;SDS011;3785;52.260;4.728;2024-02-23T18:21:50;1.65;;;0.85;;
7487;SDS011;3785;52.260;4.728;2024-02-23T18:25:10;2.25;;;0.70;;
7487;SDS011;3785;52.260;4.728;2024-02-23T18:28:31;2.05;;;0.90;;
7487;SDS011;3785;52.260;4.728;2024-02-23T18:31:52;1.10;;;0.60;;
7487;SDS011;3785;52.260;4.728;2024-02-23T18:35:12;2.25;;;0.57;;
7487;SDS011;3785;52.260;4.728;2024-02-23T18:38:33;0.98;;;0.70;;
7487;SDS011;3785;52.260;4.728;2024-02-23T18:41:54;1.50;;;0.73;;
7487;SDS011;3785;52.260;4.728;2024-02-23T18:45:14;2.63;;;0.75;;
7487;SDS011;3785;52.260;4.728;2024-02-23T18:48:39;1.17;;;0.70;;
7487;SDS011;3785;52.260;4.728;2024-02-23T18:52:00;1.30;;;0.80;;
7487;SDS011;3785;52.260;4.728;2024-02-23T18:55:20;1.42;;;0.93;;
7487;SDS011;3785;52.260;4.728;2024-02-23T18:58:41;1.25;;;0.73;;
7487;SDS011;3785;52.260;4.728;2024-02-23T19:02:02;1.35;;;0.80;;
7487;SDS011;3785;52.260;4.728;2024-02-23T19:05:23;0.75;;;0.60;;
7487;SDS011;3785;52.260;4.728;2024-02-23T19:08:44;1.70;;;0.98;;
7487;SDS011;3785;52.260;4.728;2024-02-23T19:12:04;1.20;;;0.68;;
7487;SDS011;3785;52.260;4.728;2024-02-23T19:15:26;1.85;;;0.77;;
7487;SDS011;3785;52.260;4.728;2024-02-23T19:18:50;0.80;;;0.60;;
7487;SDS011;3785;52.260;4.728;2024-02-23T19:22:10;2.55;;;0.80;;
7487;SDS011;3785;52.260;4.728;2024-02-23T19:25:32;0.98;;;0.60;;
7487;SDS011;3785;52.260;4.728;2024-02-23T19:28:52;4.32;;;0.73;;
7487;SDS011;3785;52.260;4.728;2024-02-23T19:32:13;1.05;;;0.85;;
7487;SDS011;3785;52.260;4.728;2024-02-23T19:35:34;1.30;;;0.82;;
7487;SDS011;3785;52.260;4.728;2024-02-23T19:38:54;2.00;;;0.85;;
7487;SDS011;3785;52.260;4.728;2024-02-23T19:42:15;2.35;;;0.98;;
7487;SDS011;3785;52.260;4.728;2024-02-23T19:45:35;2.95;;;1.20;;
7487;SDS011;3785;52.260;4.728;2024-02-23T19:48:56;1.75;;;1.15;;
7487;SDS011;3785;52.260;4.728;2024-02-23T19:52:17;2.35;;;1.10;;
7487;SDS011;3785;52.260;4.728;2024-02-23T19:55:37;1.52;;;0.90;;
7487;SDS011;3785;52.260;4.728;2024-02-23T19:59:00;3.58;;;1.38;;
7487;SDS011;3785;52.260;4.728;2024-02-23T20:02:21;3.38;;;1.63;;
7487;SDS011;3785;52.260;4.728;2024-02-23T20:05:41;1.38;;;0.85;;
7487;SDS011;3785;52.260;4.728;2024-02-23T20:09:02;2.53;;;0.93;;
7487;SDS011;3785;52.260;4.728;2024-02-23T20:12:23;1.50;;;0.90;;
7487;SDS011;3785;52.260;4.728;2024-02-23T20:15:43;0.80;;;0.45;;
7487;SDS011;3785;52.260;4.728;2024-02-23T20:19:04;0.55;;;0.30;;
7487;SDS011;3785;52.260;4.728;2024-02-23T20:22:25;2.00;;;0.35;;
7487;SDS011;3785;52.260;4.728;2024-02-23T20:25:45;1.13;;;0.40;;
7487;SDS011;3785;52.260;4.728;2024-02-23T20:29:06;0.63;;;0.30;;
7487;SDS011;3785;52.260;4.728;2024-02-23T20:32:27;1.30;;;0.60;;
7487;SDS011;3785;52.260;4.728;2024-02-23T20:35:48;1.23;;;0.52;;
7487;SDS011;3785;52.260;4.728;2024-02-23T20:39:08;0.43;;;0.40;;
7487;SDS011;3785;52.260;4.728;2024-02-23T20:42:30;1.48;;;0.52;;
7487;SDS011;3785;52.260;4.728;2024-02-23T20:45:51;1.55;;;0.75;;
7487;SDS011;3785;52.260;4.728;2024-02-23T20:49:13;0.55;;;0.50;;
7487;SDS011;3785;52.260;4.728;2024-02-23T20:52:33;1.55;;;0.65;;